Time;durP1;ratioP1;P1;durP2;ratioP2;P2;SDS_P1;SDS_P2;PMS_P1;PMS_P2;Temp;Humidity;BMP_temperature;BMP_pressure;BME280_temperature;BME280_humidity;BME280_pressure;Samples;Min_cycle;Max_cycle;Signal;HPM_P1;HPM_P2
2022/03/25 00:02:06;;;;;;;;;57.67;44.33;;;;;12.86;63.17;102316.50;5016322;28;46925;-83
2022/03/25 00:04:32;;;;;;;;;57.33;45.00;;;;;12.84;59.62;102309.50;5023361;28;45506;-85
2022/03/25 00:06:57;;;;;;;;;55.67;44.00;;;;;12.87;62.26;102312.03;5017598;28;45269;-84
2022/03/25 00:09:24;;;;;;;;;56.67;44.00;;;;;12.82;58.07;102314.94;5016691;28;45476;-83
2022/03/25 00:11:49;;;;;;;;;55.67;42.33;;;;;12.81;61.52;102315.00;5016242;28;45818;-84
2022/03/25 00:14:16;;;;;;;;;56.00;45.33;;;;;12.81;62.15;102307.00;5015254;28;45508;-83
2022/03/25 00:16:43;;;;;;;;;53.00;45.00;;;;;12.78;61.84;102310.69;5016669;28;45297;-84
2022/03/25 00:19:09;;;;;;;;;59.67;43.00;;;;;12.75;60.00;102316.19;5022096;28;44748;-83
2022/03/25 00:21:36;;;;;;;;;57.33;44.67;;;;;12.74;62.53;102313.59;5038371;28;44934;-84
2022/03/25 00:24:02;;;;;;;;;58.33;45.67;;;;;12.69;61.73;102307.63;5040536;28;44797;-83
2022/03/25 00:26:27;;;;;;;;;60.00;42.00;;;;;12.65;62.35;102311.38;5049940;28;44809;-82
2022/03/25 00:28:52;;;;;;;;;60.67;45.67;;;;;12.65;61.46;102317.59;5059018;28;44857;-83
2022/03/25 00:31:18;;;;;;;;;53.33;40.67;;;;;12.63;61.52;102311.47;5056980;28;46053;-83
2022/03/25 00:33:44;;;;;;;;;59.00;45.67;;;;;12.59;59.64;102312.56;5056915;27;45394;-84
2022/03/25 00:36:10;;;;;;;;;62.00;48.67;;;;;12.58;57.94;102308.19;5056580;28;44726;-83
2022/03/25 00:38:36;;;;;;;;;49.67;39.67;;;;;12.59;61.57;102308.09;5058971;28;44845;-83
2022/03/25 00:41:02;;;;;;;;;58.00;46.67;;;;;12.59;60.36;102308.09;5062556;28;44936;-83
2022/03/25 00:43:28;;;;;;;;;47.00;40.33;;;;;12.59;60.10;102313.44;5060447;28;44704;-83
2022/03/25 00:45:54;;;;;;;;;49.33;40.00;;;;;12.62;60.76;102309.75;5056768;28;45182;-83
2022/03/25 00:48:19;;;;;;;;;56.00;43.33;;;;;12.60;61.69;102314.28;5061407;28;44859;-83
2022/03/25 00:50:44;;;;;;;;;52.33;43.33;;;;;12.60;62.27;102312.47;5054313;28;45398;-84
2022/03/25 00:53:10;;;;;;;;;57.67;46.00;;;;;12.61;59.68;102318.66;5036902;28;44832;-82
2022/03/25 00:55:37;;;;;;;;;57.00;44.33;;;;;12.58;61.12;102309.03;5036606;28;45394;-83
2022/03/25 00:58:03;;;;;;;;;61.00;45.00;;;;;12.55;61.74;102311.00;5035559;28;44761;-82
2022/03/25 01:00:30;;;;;;;;;58.67;47.00;;;;;12.51;63.19;102307.59;5035673;28;45385;-83
2022/03/25 01:02:55;;;;;;;;;59.67;46.33;;;;;12.48;62.32;102302.44;5036085;28;45234;-83
2022/03/25 01:05:20;;;;;;;;;53.00;41.67;;;;;12.48;62.69;102305.13;5035898;28;44901;-82
2022/03/25 01:07:46;;;;;;;;;55.67;45.33;;;;;12.44;60.63;102314.19;5037728;28;44893;-83
2022/03/25 01:10:12;;;;;;;;;55.67;43.00;;;;;12.46;63.70;102317.63;5041270;28;45358;-85
2022/03/25 01:12:37;;;;;;;;;64.00;45.00;;;;;12.44;64.19;102316.84;5038386;28;44920;-83
2022/03/25 01:15:04;;;;;;;;;59.00;48.00;;;;;12.40;62.97;102309.94;5036843;28;44795;-84
2022/03/25 01:17:30;;;;;;;;;59.33;45.33;;;;;12.37;64.97;102314.56;5036988;28;45271;-84
2022/03/25 01:19:55;;;;;;;;;60.00;45.33;;;;;12.34;65.41;102307.59;5036472;28;44950;-81
2022/03/25 01:22:21;;;;;;;;;60.00;44.67;;;;;12.32;64.29;102299.66;5036441;28;45396;-83
2022/03/25 01:24:47;;;;;;;;;62.33;46.00;;;;;12.31;62.81;102303.25;5038052;28;45483;-82
2022/03/25 01:27:12;;;;;;;;;48.33;34.33;;;;;12.32;66.13;102304.13;5040458;28;44878;-82
2022/03/25 01:29:38;;;;;;;;;58.33;45.33;;;;;12.29;67.40;102297.16;5040435;28;45324;-83
2022/03/25 01:32:06;;;;;;;;;61.00;48.33;;;;;12.28;64.50;102299.88;5041269;28;44897;-82
2022/03/25 01:34:33;;;;;;;;;64.00;46.67;;;;;12.24;64.23;102301.00;5044174;28;44749;-83
2022/03/25 01:36:58;;;;;;;;;60.67;44.67;;;;;12.22;64.18;102289.53;5038126;28;44870;-84
2022/03/25 01:39:24;;;;;;;;;56.00;44.33;;;;;12.20;66.57;102288.75;5038106;28;45108;-83
2022/03/25 01:41:49;;;;;;;;;62.67;47.00;;;;;12.14;67.02;102289.91;5036638;28;45347;-83
2022/03/25 01:44:23;;;;;;;;;61.33;47.33;;;;;12.09;66.22;102286.63;5037162;28;44793;-82
2022/03/25 01:46:48;;;;;;;;;49.33;42.33;;;;;12.06;62.62;102289.41;5036285;28;44872;-82
2022/03/25 01:49:15;;;;;;;;;59.00;46.33;;;;;12.03;67.57;102276.25;5035771;28;45297;-83
2022/03/25 01:51:41;;;;;;;;;61.67;45.67;;;;;12.00;65.12;102281.72;5041542;28;44833;-82
2022/03/25 01:54:18;;;;;;;;;61.00;48.00;;;;;11.92;64.64;102284.75;5067956;28;44855;-83
2022/03/25 01:56:44;;;;;;;;;62.00;48.33;;;;;11.92;66.72;102279.41;5059929;28;45353;-83
2022/03/25 01:59:10;;;;;;;;;63.33;49.67;;;;;11.91;66.84;102285.69;5064419;28;45310;-82
2022/03/25 02:01:36;;;;;;;;;64.67;51.00;;;;;11.90;64.20;102288.44;5061931;28;45387;-83
2022/03/25 02:04:01;;;;;;;;;57.00;46.00;;;;;11.86;65.92;102285.06;5059169;28;44761;-85
2022/03/25 02:06:27;;;;;;;;;57.67;46.67;;;;;11.81;67.04;102277.25;5058811;28;45374;-82
2022/03/25 02:08:53;;;;;;;;;61.00;48.33;;;;;11.79;66.43;102275.56;5058337;28;45398;-82
2022/03/25 02:11:19;;;;;;;;;54.33;43.33;;;;;11.77;67.72;102282.78;5058269;28;45446;-83
2022/03/25 02:13:45;;;;;;;;;57.67;45.00;;;;;11.73;68.63;102278.53;5058559;28;44727;-82
2022/03/25 02:16:10;;;;;;;;;55.33;42.00;;;;;11.67;69.16;102279.69;5059432;28;44842;-81
2022/03/25 02:18:35;;;;;;;;;61.33;48.67;;;;;11.64;68.15;102274.50;5065468;28;45321;-83
2022/03/25 02:21:01;;;;;;;;;61.67;50.00;;;;;11.66;67.12;102285.09;5060368;28;44748;-82
2022/03/25 02:23:26;;;;;;;;;56.33;42.67;;;;;11.65;69.17;102278.88;5039569;28;45438;-83
2022/03/25 02:25:54;;;;;;;;;63.33;49.67;;;;;11.66;70.06;102275.31;5045233;28;44811;-82
2022/03/25 02:28:20;;;;;;;;;64.00;49.00;;;;;11.63;68.08;102277.25;5041469;28;46276;-82
2022/03/25 02:30:45;;;;;;;;;63.67;49.00;;;;;11.62;63.34;102278.19;5038865;28;45320;-84
2022/03/25 02:33:12;;;;;;;;;57.67;43.67;;;;;11.62;67.69;102278.19;5042938;28;44824;-83
2022/03/25 02:35:40;;;;;;;;;58.67;47.33;;;;;11.61;69.20;102279.13;5042160;28;44839;-82
2022/03/25 02:38:06;;;;;;;;;59.67;45.33;;;;;11.56;67.29;102280.19;5038567;28;45714;-82
2022/03/25 02:40:33;;;;;;;;;62.67;49.00;;;;;11.53;69.05;102292.78;5037673;28;45372;-83
2022/03/25 02:42:59;;;;;;;;;65.00;47.67;;;;;11.46;71.88;102276.25;5038513;28;45515;-82
2022/03/25 02:45:24;;;;;;;;;63.00;47.67;;;;;11.45;69.73;102284.28;5036858;28;45420;-83
2022/03/25 02:47:50;;;;;;;;;63.67;49.00;;;;;11.42;70.90;102287.09;5037815;28;45313;-83
2022/03/25 02:50:16;;;;;;;;;54.67;43.00;;;;;11.38;71.32;102286.34;5037713;28;44701;-82
2022/03/25 02:52:42;;;;;;;;;64.00;50.33;;;;;11.38;69.51;102290.81;5042141;28;45550;-82
2022/03/25 02:55:09;;;;;;;;;63.67;51.00;;;;;11.37;74.59;102286.44;5056360;28;45584;-83
2022/03/25 02:57:36;;;;;;;;;67.67;48.00;;;;;11.37;70.48;102295.28;5057883;28;44998;-82
2022/03/25 03:00:03;;;;;;;;;66.67;49.00;;;;;11.38;74.46;102289.03;5057273;28;44723;-83
2022/03/25 03:02:29;;;;;;;;;65.33;51.00;;;;;11.37;73.79;102289.97;5057343;28;45313;-83
2022/03/25 03:04:54;;;;;;;;;66.00;48.67;;;;;11.33;71.76;102285.69;5059873;28;44960;-83
2022/03/25 03:07:20;;;;;;;;;61.33;46.67;;;;;11.35;72.49;102294.47;5064668;27;45237;-82
2022/03/25 03:09:45;;;;;;;;;63.00;48.00;;;;;11.34;69.46;102284.75;5060698;28;45344;-83
2022/03/25 03:12:11;;;;;;;;;63.00;48.33;;;;;11.32;72.47;102289.31;5057826;28;45325;-83
2022/03/25 03:14:36;;;;;;;;;53.00;45.00;;;;;11.30;70.99;102291.16;5057422;28;45225;-83
2022/03/25 03:17:04;;;;;;;;;63.67;48.33;;;;;11.26;70.38;102290.41;5058087;28;45285;-83
2022/03/25 03:19:30;;;;;;;;;67.00;48.00;;;;;11.23;74.24;102289.72;5060387;28;44813;-84
2022/03/25 03:21:55;;;;;;;;;53.00;41.33;;;;;11.19;74.86;102282.81;5059561;28;45379;-83
2022/03/25 03:24:20;;;;;;;;;58.33;43.33;;;;;11.15;74.34;102289.19;5038006;28;44851;-83
2022/03/25 03:26:46;;;;;;;;;59.00;46.00;;;;;11.10;69.71;102293.84;5037288;28;45000;-83
2022/03/25 03:29:12;;;;;;;;;64.00;49.33;;;;;11.04;74.66;102292.31;5037139;28;45474;-83
2022/03/25 03:31:38;;;;;;;;;60.33;46.67;;;;;11.00;75.97;102288.94;5036701;28;44824;-84
2022/03/25 03:34:03;;;;;;;;;65.67;50.00;;;;;10.96;76.52;102282.00;5038974;28;45333;-83
2022/03/25 03:36:28;;;;;;;;;63.33;49.33;;;;;10.91;79.46;102275.16;5039327;28;45090;-84
2022/03/25 03:38:54;;;;;;;;;67.00;50.00;;;;;10.91;77.62;102281.34;5039856;28;45198;-83
2022/03/25 03:41:19;;;;;;;;;63.00;46.33;;;;;10.90;74.93;102276.09;5039719;28;45576;-82
2022/03/25 03:43:44;;;;;;;;;64.33;49.67;;;;;10.90;77.46;102276.97;5037348;28;44834;-83
2022/03/25 03:46:10;;;;;;;;;61.67;49.00;;;;;10.88;73.26;102277.94;5037116;28;45273;-83
2022/03/25 03:48:35;;;;;;;;;63.67;47.33;;;;;10.85;78.20;102276.31;5042781;28;45395;-83
2022/03/25 03:51:01;;;;;;;;;59.33;47.67;;;;;10.80;76.09;102284.47;5039893;28;45253;-82
2022/03/25 03:53:26;;;;;;;;;67.67;52.33;;;;;10.76;77.89;102274.91;5039976;28;45316;-82
2022/03/25 03:55:52;;;;;;;;;65.33;51.00;;;;;10.73;77.65;102279.47;5062638;28;45158;-83
2022/03/25 03:58:17;;;;;;;;;60.33;46.33;;;;;10.69;77.83;102280.56;5061984;28;44840;-82
2022/03/25 04:00:42;;;;;;;;;65.00;49.33;;;;;10.64;80.53;102283.41;5057000;28;45623;-82
2022/03/25 04:03:08;;;;;;;;;61.67;49.00;;;;;10.66;79.13;102280.69;5056546;28;44878;-83
2022/03/25 04:05:33;;;;;;;;;68.67;51.33;;;;;10.66;78.30;102280.69;5056433;28;45173;-83
2022/03/25 04:07:59;;;;;;;;;58.67;43.33;;;;;10.67;73.22;102285.06;5056581;28;45387;-84
2022/03/25 04:10:24;;;;;;;;;63.33;48.00;;;;;10.70;74.41;102285.81;5055614;28;44754;-83
2022/03/25 04:12:50;;;;;;;;;68.67;51.00;;;;;10.72;74.40;102283.06;5057733;28;45561;-84
2022/03/25 04:15:16;;;;;;;;;56.33;42.33;;;;;10.72;74.49;102291.91;5064682;28;45170;-81
2022/03/25 04:17:42;;;;;;;;;63.33;46.00;;;;;10.71;79.95;102286.66;5061302;28;45338;-81
2022/03/25 04:20:10;;;;;;;;;69.00;53.33;;;;;10.66;80.15;102283.34;5060855;28;45339;-83
2022/03/25 04:22:37;;;;;;;;;66.00;49.00;;;;;10.67;79.34;102290.38;5054121;28;44921;-81
2022/03/25 04:25:05;;;;;;;;;62.33;48.00;;;;;10.62;80.56;102279.94;5036130;28;45332;-81
2022/03/25 04:27:31;;;;;;;;;59.67;48.67;;;;;10.60;77.53;102289.78;5036121;28;45442;-82
2022/03/25 04:29:56;;;;;;;;;61.67;47.67;;;;;10.59;75.63;102290.72;5036376;28;45351;-82
2022/03/25 04:32:22;;;;;;;;;62.33;47.67;;;;;10.55;79.71;102291.78;5036914;28;44859;-82
2022/03/25 04:34:47;;;;;;;;;63.67;47.67;;;;;10.52;80.80;102291.88;5036409;28;45370;-82
2022/03/25 04:37:12;;;;;;;;;61.00;46.00;;;;;10.50;81.26;102288.44;5036714;28;45446;-82
2022/03/25 04:39:39;;;;;;;;;60.67;47.33;;;;;10.46;81.66;102284.19;5037410;28;44892;-82
2022/03/25 04:42:04;;;;;;;;;62.00;47.33;;;;;10.42;80.98;102287.88;5039312;28;45277;-83
2022/03/25 04:44:30;;;;;;;;;53.67;45.00;;;;;10.39;80.07;102295.97;5043182;28;45294;-83
2022/03/25 04:46:56;;;;;;;;;62.67;46.67;;;;;10.37;76.53;102290.72;5048521;28;45383;-82
2022/03/25 04:49:23;;;;;;;;;66.67;49.33;;;;;10.40;75.76;102295.06;5041816;28;45208;-83
2022/03/25 04:51:48;;;;;;;;;64.67;51.00;;;;;10.43;77.79;102293.13;5037254;28;45547;-82
2022/03/25 04:54:14;;;;;;;;;64.67;49.33;;;;;10.44;81.06;102296.66;5042725;28;45368;-82
2022/03/25 04:56:40;;;;;;;;;59.33;48.00;;;;;10.43;81.29;102294.94;5056852;28;44812;-81
2022/03/25 04:59:05;;;;;;;;;67.67;49.00;;;;;10.43;79.94;102301.09;5054904;28;45402;-83
2022/03/25 05:01:30;;;;;;;;;59.67;46.33;;;;;10.39;81.71;102302.16;5054441;28;45597;-80
2022/03/25 05:03:56;;;;;;;;;63.00;47.00;;;;;10.35;82.68;102305.88;5055953;28;45442;-83
2022/03/25 05:06:21;;;;;;;;;62.67;48.00;;;;;10.32;83.32;102300.69;5057672;28;44745;-81
2022/03/25 05:08:46;;;;;;;;;64.33;50.00;;;;;10.29;79.48;102309.63;5056548;28;45279;-83
2022/03/25 05:11:12;;;;;;;;;66.00;47.33;;;;;10.28;82.51;102312.34;5059616;28;45374;-84
2022/03/25 05:13:38;;;;;;;;;64.67;46.33;;;;;10.26;86.43;102307.13;5057712;27;45550;-83
2022/03/25 05:16:03;;;;;;;;;70.67;51.67;;;;;10.29;84.08;102308.75;5056817;28;45548;-83
2022/03/25 05:18:29;;;;;;;;;66.67;50.00;;;;;10.27;84.11;102308.84;5055531;28;44831;-81
2022/03/25 05:20:54;;;;;;;;;64.00;47.67;;;;;10.26;85.66;102308.91;5056308;28;45418;-84
2022/03/25 05:23:20;;;;;;;;;64.00;46.33;;;;;10.25;85.77;102313.34;5050209;28;44940;-85
2022/03/25 05:25:45;;;;;;;;;64.33;49.33;;;;;10.22;84.18;102309.91;5035480;28;45317;-83
2022/03/25 05:28:12;;;;;;;;;60.33;48.33;;;;;10.19;85.76;102310.03;5036998;28;45404;-83
2022/03/25 05:30:37;;;;;;;;;56.67;45.67;;;;;10.16;86.13;102313.69;5039362;28;45410;-84
2022/03/25 05:33:02;;;;;;;;;61.00;49.33;;;;;10.11;87.53;102315.66;5043375;28;45142;-83
2022/03/25 05:35:29;;;;;;;;;65.33;49.67;;;;;10.11;86.76;102312.16;5044906;28;44801;-83
2022/03/25 05:37:55;;;;;;;;;64.67;50.67;;;;;10.10;88.93;102302.44;5043997;28;45495;-84
2022/03/25 05:40:23;;;;;;;;;59.00;49.33;;;;;10.10;86.28;102316.56;5043247;28;45469;-82
2022/03/25 05:42:49;;;;;;;;;62.33;50.33;;;;;10.09;87.07;102314.84;5042884;28;46665;-82
2022/03/25 05:45:18;;;;;;;;;55.00;42.00;;;;;10.07;88.82;102311.41;5046328;28;44789;-84
2022/03/25 05:47:44;;;;;;;;;62.00;49.67;;;;;10.05;86.35;102316.75;5049047;28;45176;-83
2022/03/25 05:50:11;;;;;;;;;64.33;49.67;;;;;10.06;89.23;102320.28;5041115;28;45392;-82
2022/03/25 05:52:37;;;;;;;;;69.67;50.00;;;;;10.04;87.57;102312.38;5038673;28;45321;-84
2022/03/25 05:55:04;;;;;;;;;60.00;46.00;;;;;10.06;87.80;102312.34;5041579;28;45285;-83
2022/03/25 05:57:30;;;;;;;;;62.33;46.00;;;;;10.09;87.00;102320.16;5063397;28;44796;-86
2022/03/25 05:59:58;;;;;;;;;67.33;51.00;;;;;10.08;88.20;102315.78;5066426;28;44761;-85
2022/03/25 06:02:24;;;;;;;;;63.00;50.67;;;;;10.13;84.11;102321.78;5066412;28;45067;-84
2022/03/25 06:04:50;;;;;;;;;66.00;52.33;;;;;10.16;86.14;102320.78;5073103;28;44789;-82
2022/03/25 06:07:15;;;;;;;;;58.33;47.00;;;;;10.21;88.08;102321.47;5076486;28;44742;-83
2022/03/25 06:09:41;;;;;;;;;68.67;51.67;;;;;10.24;87.94;102319.56;5075839;28;45244;-85
2022/03/25 06:12:07;;;;;;;;;59.00;48.00;;;;;10.28;88.94;102321.19;5074558;27;45235;-86
2022/03/25 06:14:32;;;;;;;;;60.00;47.00;;;;;10.36;87.72;102333.31;5066511;28;44989;-87
2022/03/25 06:16:58;;;;;;;;;60.67;45.00;;;;;10.44;86.73;102329.41;5068634;28;44868;-87
2022/03/25 06:19:23;;;;;;;;;63.67;46.33;;;;;10.48;87.48;102331.00;5065034;28;44869;-85
2022/03/25 06:21:49;;;;;;;;;65.00;47.67;;;;;10.60;86.81;102334.97;5066338;28;45163;-88
2022/03/25 06:24:14;;;;;;;;;62.33;48.67;;;;;10.72;85.42;102341.53;5070905;28;44808;-88
2022/03/25 06:26:40;;;;;;;;;67.33;48.33;;;;;10.79;86.88;102343.03;5051141;28;44798;-86
2022/03/25 06:29:08;;;;;;;;;68.00;52.00;;;;;10.89;85.89;102341.72;5060277;28;45229;-88
2022/03/25 06:31:33;;;;;;;;;63.67;47.00;;;;;10.98;85.05;102346.66;5059477;28;46786;-88
2022/03/25 06:33:58;;;;;;;;;64.67;48.67;;;;;11.05;86.14;102348.09;5061203;28;44785;-88
2022/03/25 06:36:24;;;;;;;;;67.67;48.33;;;;;11.08;86.11;102349.78;5072710;28;45301;-87
2022/03/25 06:38:49;;;;;;;;;57.00;47.00;;;;;11.18;85.86;102344.91;5072943;28;44839;-90
2022/03/25 06:41:15;;;;;;;;;66.00;52.67;;;;;11.23;85.97;102356.22;5065385;28;45210;-89
2022/03/25 06:43:40;;;;;;;;;62.33;47.33;;;;;11.29;84.76;102353.28;5068093;28;45272;-87
2022/03/25 06:46:06;;;;;;;;;65.67;51.00;;;;;11.35;85.12;102352.16;5068250;28;45305;-88
2022/03/25 06:48:34;;;;;;;;;63.00;48.00;;;;;11.40;80.49;102361.66;5066576;28;45303;-89
2022/03/25 06:51:00;;;;;;;;;58.33;47.00;;;;;11.45;84.40;102354.31;5066742;28;45367;-86
2022/03/25 06:53:27;;;;;;;;;64.67;48.67;;;;;11.53;83.03;102354.84;5063098;28;45307;-87
2022/03/25 06:55:53;;;;;;;;;70.67;51.67;;;;;11.58;81.74;102358.16;5060711;28;44736;-88
2022/03/25 06:58:20;;;;;;;;;65.33;50.00;;;;;11.64;82.79;102367.66;5045389;28;44834;-88
2022/03/25 07:00:47;;;;;;;;;63.33;50.00;;;;;11.69;83.39;102364.81;5044021;28;45133;-89
2022/03/25 07:03:14;;;;;;;;;65.00;51.67;;;;;11.71;81.89;102369.13;5041882;28;45316;-89
2022/03/25 07:05:40;;;;;;;;;61.00;48.33;;;;;11.72;80.52;102364.66;5047514;28;44741;-88
2022/03/25 07:08:06;;;;;;;;;69.33;52.33;;;;;11.76;81.53;102359.13;5044919;28;44909;-88
2022/03/25 07:10:32;;;;;;;;;64.00;51.00;;;;;11.76;80.95;102359.13;5044060;28;46711;-87
2022/03/25 07:12:57;;;;;;;;;66.00;51.33;;;;;11.83;80.89;102367.72;5042637;28;44700;-88
2022/03/25 07:15:24;;;;;;;;;63.00;50.00;;;;;11.88;80.18;102365.72;5046357;28;44724;-89
2022/03/25 07:17:52;;;;;;;;;60.67;46.33;;;;;11.90;80.94;102366.53;5047920;28;44919;-89
2022/03/25 07:20:21;;;;;;;;;69.33;52.67;;;;;11.96;79.96;102376.88;5049337;28;45438;-89
2022/03/25 07:22:49;;;;;;;;;68.67;52.67;;;;;12.03;81.02;102373.00;5044560;28;44822;-88
2022/03/25 07:25:18;;;;;;;;;67.67;50.00;;;;;12.12;79.55;102374.38;5050340;28;44629;-89
2022/03/25 07:27:45;;;;;;;;;62.33;48.33;;;;;12.20;79.15;102382.00;5053856;28;44833;-89
2022/03/25 07:30:12;;;;;;;;;73.00;57.00;;;;;12.25;78.30;102385.31;5052567;28;45305;-89
2022/03/25 07:32:44;;;;;;;;;67.00;50.33;;;;;12.20;78.54;102385.53;5060051;28;45191;-89
2022/03/25 07:35:25;;;;;;;;;66.00;50.33;;;;;12.29;78.90;102385.09;5021430;28;44696;-89
2022/03/25 07:37:52;;;;;;;;;67.67;50.33;;;;;12.34;78.39;102390.22;5069404;28;44835;-88
2022/03/25 07:40:22;;;;;;;;;68.33;52.33;;;;;12.43;77.79;102397.78;5054934;28;45721;-88
2022/03/25 07:42:48;;;;;;;;;67.33;53.00;;;;;12.50;77.66;102393.00;5051469;28;45207;-88
2022/03/25 07:45:34;;;;;;;;;65.67;50.33;;;;;12.59;76.21;102396.06;5053486;28;45163;-88
2022/03/25 07:48:00;;;;;;;;;64.33;47.00;;;;;12.63;76.44;102403.94;5051327;28;44917;-89
2022/03/25 07:50:26;;;;;;;;;71.00;56.67;;;;;12.60;77.25;102396.94;5052208;28;45188;-89
2022/03/25 07:52:52;;;;;;;;;50.25;41.75;;;;;12.61;74.97;102396.00;5053479;28;44716;-88
2022/03/25 07:55:20;;;;;;;;;70.33;53.00;;;;;12.67;76.42;102405.50;5048481;28;44780;-88
2022/03/25 07:57:49;;;;;;;;;62.33;48.00;;;;;12.72;74.89;102408.81;5046201;28;44809;-88
2022/03/25 08:00:18;;;;;;;;;66.67;53.00;;;;;12.79;76.68;102403.09;5053019;28;47155;-89
2022/03/25 08:02:48;;;;;;;;;71.67;53.00;;;;;12.80;76.47;102404.81;5073075;28;44838;-90
2022/03/25 08:05:17;;;;;;;;;66.33;50.00;;;;;12.78;75.48;102411.19;5053212;28;44761;-87
2022/03/25 08:07:52;;;;;;;;;71.67;54.33;;;;;12.84;74.29;102405.53;5043764;28;45482;-87
2022/03/25 08:10:20;;;;;;;;;68.33;52.67;;;;;13.00;73.69;102409.16;5043261;28;45278;-87
2022/03/25 08:12:47;;;;;;;;;71.33;54.00;;;;;13.18;73.28;102411.84;5040174;28;44747;-88
2022/03/25 08:15:13;;;;;;;;;60.33;43.00;;;;;13.27;72.49;102409.59;5037370;28;44795;-87
2022/03/25 08:17:58;;;;;;;;;62.00;50.00;;;;;13.33;72.31;102414.59;5040613;28;45400;-87
2022/03/25 08:20:28;;;;;;;;;53.67;39.67;;;;;13.51;71.85;102410.13;5042413;28;45516;-85
2022/03/25 08:22:57;;;;;;;;;69.00;52.33;;;;;13.61;70.20;102408.69;5044850;28;45404;-87
2022/03/25 08:28:07;;;;;;;;;72.33;56.00;;;;;13.75;68.69;102413.31;5038993;28;45466;-87
2022/03/25 08:30:34;;;;;;;;;73.67;55.67;;;;;13.78;68.18;102420.28;5038439;28;46421;-87
2022/03/25 08:33:01;;;;;;;;;68.67;52.00;;;;;13.75;68.22;102418.66;5038642;28;45403;-88
2022/03/25 08:35:27;;;;;;;;;69.00;54.33;;;;;13.95;67.56;102414.03;5040671;28;45331;-87
2022/03/25 08:37:54;;;;;;;;;59.00;47.67;;;;;14.08;65.96;102412.44;5041819;28;45400;-87
2022/03/25 08:40:27;;;;;;;;;69.33;53.00;;;;;14.11;65.84;102414.91;5049383;28;44998;-87
2022/03/25 08:42:54;;;;;;;;;75.00;57.33;;;;;14.21;64.50;102418.81;5058412;28;45524;-88
2022/03/25 08:45:19;;;;;;;;;70.33;53.67;;;;;14.23;64.56;102414.25;5061285;28;45381;-88
2022/03/25 08:47:46;;;;;;;;;71.33;54.00;;;;;14.39;64.82;102414.25;5062940;28;44850;-89
2022/03/25 08:50:13;;;;;;;;;64.00;48.33;;;;;14.49;63.33;102412.81;5062554;28;45424;-87
2022/03/25 08:52:40;;;;;;;;;71.00;55.67;;;;;14.60;64.20;102413.09;5064802;28;44747;-87
2022/03/25 08:55:06;;;;;;;;;80.33;61.33;;;;;14.64;62.37;102421.78;5066936;28;45253;-86
2022/03/25 08:57:32;;;;;;;;;72.33;54.33;;;;;14.75;61.71;102413.16;5067277;28;45320;-87
2022/03/25 08:59:58;;;;;;;;;76.00;58.67;;;;;14.87;61.14;102415.97;5069459;28;45062;-87
2022/03/25 09:02:24;;;;;;;;;78.00;59.67;;;;;15.00;61.55;102420.63;5068649;28;45312;-87
2022/03/25 09:04:49;;;;;;;;;77.00;57.67;;;;;15.11;61.61;102402.09;5070141;28;45157;-87
2022/03/25 09:07:15;;;;;;;;;64.33;49.67;;;;;15.09;58.97;102425.44;5069808;28;44851;-87
2022/03/25 09:09:40;;;;;;;;;66.67;51.00;;;;;15.18;59.14;102432.91;5067870;28;45104;-86
2022/03/25 09:12:08;;;;;;;;;66.67;50.67;;;;;15.25;58.39;102420.03;5066831;28;44687;-87
2022/03/25 09:14:34;;;;;;;;;66.33;50.33;;;;;15.41;58.04;102410.97;5066364;28;44696;-87
2022/03/25 09:17:00;;;;;;;;;64.00;51.67;;;;;15.57;57.92;102412.72;5066638;28;44823;-86
2022/03/25 09:19:26;;;;;;;;;66.00;50.00;;;;;15.70;57.67;102424.44;5070144;28;45089;-88
2022/03/25 09:21:51;;;;;;;;;68.67;52.00;;;;;15.75;56.50;102414.28;5070748;28;44870;-87
2022/03/25 09:24:17;;;;;;;;;69.33;49.67;;;;;15.92;56.66;102413.25;5067308;28;44829;-87
2022/03/25 09:26:42;;;;;;;;;66.33;49.33;;;;;16.02;55.63;102413.53;5068083;28;44843;-88
2022/03/25 09:29:08;;;;;;;;;66.67;47.33;;;;;16.16;55.39;102413.53;5070789;28;45312;-87
2022/03/25 09:31:33;;;;;;;;;70.67;53.67;;;;;16.29;53.21;102408.22;5068506;28;45313;-87
2022/03/25 09:35:08;;;;;;;;;61.33;49.00;;;;;16.49;53.87;102407.81;5068840;28;44762;-87
2022/03/25 09:36:44;;;;;;;;;72.33;53.33;;;;;16.52;51.33;102409.44;5068463;28;44876;-88
2022/03/25 09:39:09;;;;;;;;;69.33;52.00;;;;;16.65;51.54;102413.91;5068911;28;45356;-88
2022/03/25 09:41:36;;;;;;;;;65.67;50.67;;;;;16.73;50.52;102412.53;5064080;28;44778;-86
2022/03/25 09:44:05;;;;;;;;;60.33;43.00;;;;;16.83;50.70;102411.00;5067440;28;45209;-88
2022/03/25 09:46:30;;;;;;;;;69.33;54.33;;;;;16.92;49.68;102413.03;5065885;28;45443;-87
2022/03/25 09:48:56;;;;;;;;;69.33;48.67;;;;;16.85;48.98;102401.00;5067341;28;45179;-87
2022/03/25 09:51:22;;;;;;;;;70.33;52.33;;;;;16.85;48.64;102409.06;5067534;28;45362;-87
2022/03/25 09:53:51;;;;;;;;;68.00;51.67;;;;;16.94;48.49;102413.81;5065542;28;44763;-87
2022/03/25 09:56:17;;;;;;;;;48.33;36.67;;;;;17.06;49.35;102412.97;5065215;28;44781;-87
2022/03/25 09:58:42;;;;;;;;;61.00;49.00;;;;;17.06;48.35;102409.44;5066558;28;46567;-89
2022/03/25 10:01:07;;;;;;;;;70.33;53.67;;;;;16.96;48.62;102418.09;5055422;28;44655;-87
2022/03/25 10:03:37;;;;;;;;;71.33;54.67;;;;;17.03;48.24;102429.31;5042819;28;44822;-87
2022/03/25 10:06:07;;;;;;;;;69.67;54.33;;;;;17.16;47.56;102416.78;5041183;28;44903;-87
2022/03/25 10:08:33;;;;;;;;;69.00;51.67;;;;;17.35;47.68;102407.44;5057360;28;45334;-87
2022/03/25 10:11:37;;;;;;;;;61.33;49.67;;;;;17.45;46.55;102405.84;5060350;28;45311;-88
2022/03/25 10:14:19;;;;;;;;;68.33;54.00;;;;;17.56;47.40;102405.97;4998338;28;44847;-88
2022/03/25 10:16:47;;;;;;;;;67.00;51.00;;;;;17.67;46.72;102407.91;4999705;28;45483;-86
2022/03/25 10:19:16;;;;;;;;;59.67;45.00;;;;;17.73;45.61;102392.22;5001218;28;45487;-86
2022/03/25 10:22:02;;;;;;;;;67.33;52.33;;;;;17.80;44.52;102403.41;4983733;28;44885;-87
2022/03/25 10:24:41;;;;;;;;;71.67;53.67;;;;;17.89;44.30;102391.13;5004715;28;44890;-86
2022/03/25 10:27:07;;;;;;;;;72.67;55.33;;;;;17.91;42.99;102402.66;4984633;28;45303;-87
2022/03/25 10:29:35;;;;;;;;;68.33;50.33;;;;;17.89;42.38;102404.56;4993363;28;45358;-86
2022/03/25 10:32:12;;;;;;;;;73.67;53.67;;;;;17.88;42.88;102419.00;5003751;28;45457;-88
2022/03/25 10:34:39;;;;;;;;;71.67;55.33;;;;;17.86;42.88;102397.59;5002134;28;45520;-86
2022/03/25 10:37:07;;;;;;;;;60.00;48.67;;;;;17.93;44.22;102398.88;5000737;28;44791;-87
2022/03/25 10:39:33;;;;;;;;;68.67;51.67;;;;;18.13;43.33;102408.22;5000668;28;45243;-89
2022/03/25 10:42:00;;;;;;;;;68.67;50.33;;;;;18.23;42.46;102389.59;4985315;28;44759;-88
2022/03/25 10:44:33;;;;;;;;;73.67;52.67;;;;;18.32;40.76;102385.34;5024571;28;45437;-88
2022/03/25 10:46:58;;;;;;;;;63.67;50.33;;;;;18.41;42.51;102388.19;5057226;28;45282;-87
2022/03/25 10:49:24;;;;;;;;;60.00;48.00;;;;;18.53;44.96;102381.06;5047740;28;45180;-88
2022/03/25 10:52:00;;;;;;;;;72.00;55.00;;;;;18.50;43.52;102394.75;5054757;28;45305;-86
2022/03/25 10:54:28;;;;;;;;;60.00;45.00;;;;;18.57;43.36;102384.41;5065227;28;45423;-87
2022/03/25 10:56:57;;;;;;;;;71.33;54.67;;;;;18.57;41.75;102390.66;5062563;28;45410;-88
2022/03/25 10:59:30;;;;;;;;;63.33;43.67;;;;;18.60;42.69;102386.84;5062577;28;45288;-88
2022/03/25 11:02:00;;;;;;;;;71.00;52.00;;;;;18.60;42.48;102390.41;5064437;28;45196;-89
2022/03/25 11:04:27;;;;;;;;;71.67;54.33;;;;;18.64;42.16;102382.97;5067572;28;44768;-88
2022/03/25 11:06:54;;;;;;;;;72.67;52.67;;;;;18.76;42.25;102387.47;5062609;28;45542;-87
2022/03/25 11:09:21;;;;;;;;;72.33;54.33;;;;;18.82;41.06;102396.91;5065359;28;45588;-87
2022/03/25 11:11:49;;;;;;;;;68.33;51.00;;;;;18.91;41.20;102393.53;5069182;28;44817;-88